Time;durP1;ratioP1;P1;durP2;ratioP2;P2;SDS_P1;SDS_P2;PMS_P1;PMS_P2;Temp;Humidity;BMP_temperature;BMP_pressure;BME280_temperature;BME280_humidity;BME280_pressure;Samples;Min_cycle;Max_cycle;Signal;HPM_P1;HPM_P2
2021/12/11 00:01:52;;;;;;;84.37;23.73;;;;;;;-0.47;100.00;99607.16;20899728;28;20225;-68
2021/12/11 00:12:01;;;;;;;105.13;24.90;;;;;;;-0.57;100.00;99613.59;20900347;28;20614;-67
2021/12/11 00:22:11;;;;;;;164.30;27.30;;;;;;;-0.53;100.00;99609.97;20901831;28;20219;-67
2021/12/11 00:32:26;;;;;;;198.10;31.40;;;;;;;-0.65;100.00;99604.25;20883839;28;20218;-63
2021/12/11 00:42:33;;;;;;;150.40;27.00;;;;;;;-0.69;100.00;99621.81;20901131;28;20227;-68
2021/12/11 01:02:33;;;;;;;119.20;23.53;;;;;;;-0.56;100.00;99631.03;20982615;27;20552;-64
2021/12/11 01:32:34;;;;;;;125.67;26.60;;;;;;;-0.62;100.00;99678.38;21066458;27;20567;-69
2021/12/11 01:42:39;;;;;;;111.23;24.00;;;;;;;-0.52;100.00;99682.47;21057416;27;20222;-69
2021/12/11 01:52:59;;;;;;;175.90;28.87;;;;;;;-0.51;100.00;99681.56;21054650;27;20222;-69
2021/12/11 02:03:07;;;;;;;108.93;26.37;;;;;;;-0.39;100.00;99696.06;21056439;27;20238;-68
2021/12/11 02:13:17;;;;;;;107.03;23.97;;;;;;;-0.41;100.00;99698.72;20991341;27;20775;-68
2021/12/11 02:23:22;;;;;;;136.27;26.07;;;;;;;-0.44;100.00;99719.75;20969513;28;20262;-69
2021/12/11 02:33:33;;;;;;;84.43;21.50;;;;;;;-0.44;100.00;99737.25;20970039;28;20294;-69
2021/12/11 02:43:46;;;;;;;95.90;21.87;;;;;;;-0.34;100.00;99740.47;20916183;28;20609;-69
2021/12/11 02:53:55;;;;;;;95.30;21.30;;;;;;;-0.44;100.00;99751.22;20974668;28;20233;-70
2021/12/11 03:04:10;;;;;;;60.90;17.30;;;;;;;-0.52;100.00;99775.94;20996003;28;20231;-69
2021/12/11 03:14:14;;;;;;;111.37;21.97;;;;;;;-0.61;100.00;99784.06;20995128;28;20230;-69
2021/12/11 03:24:18;;;;;;;167.93;28.17;;;;;;;-0.82;100.00;99769.75;20993971;28;20305;-69
2021/12/11 03:34:25;;;;;;;191.93;29.63;;;;;;;-0.83;100.00;99781.13;20991913;28;20230;-69
2021/12/11 03:44:33;;;;;;;126.33;25.57;;;;;;;-0.80;100.00;99815.09;20992884;28;20241;-68
2021/12/11 03:54:39;;;;;;;94.07;21.83;;;;;;;-0.68;100.00;99809.53;20991056;28;20227;-69
2021/12/11 04:05:02;;;;;;;104.07;23.17;;;;;;;-0.58;100.00;99821.50;20990701;28;20257;-67
2021/12/11 04:15:06;;;;;;;140.33;24.83;;;;;;;-0.53;100.00;99817.00;20989456;28;20572;-68
2021/12/11 04:25:11;;;;;;;118.50;23.67;;;;;;;-0.52;100.00;99821.34;20987807;28;20299;-69
2021/12/11 04:35:15;;;;;;;93.03;21.23;;;;;;;-0.49;100.00;99829.13;20988412;28;20227;-69
2021/12/11 04:45:21;;;;;;;105.73;22.13;;;;;;;-0.51;100.00;99843.16;20918288;28;20220;-67
2021/12/11 04:55:40;;;;;;;74.60;20.30;;;;;;;-0.55;100.00;99852.84;20904217;28;20219;-67
2021/12/11 05:05:56;;;;;;;96.13;20.47;;;;;;;-0.56;100.00;99856.38;20934011;28;20239;-69
2021/12/11 05:16:03;;;;;;;83.53;21.60;;;;;;;-0.53;100.00;99877.28;20903282;28;20326;-64
2021/12/11 05:26:07;;;;;;;106.77;23.57;;;;;;;-0.52;100.00;99899.09;20901939;28;20795;-69
2021/12/11 05:36:12;;;;;;;113.43;23.03;;;;;;;-0.52;100.00;99904.34;20916629;28;20306;-69
2021/12/11 05:46:17;;;;;;;119.60;22.13;;;;;;;-0.47;100.00;99908.53;20901298;28;20242;-70
2021/12/11 05:56:21;;;;;;;104.73;22.60;;;;;;;-0.46;100.00;99922.50;20901636;28;20229;-67
2021/12/11 06:06:24;;;;;;;80.23;21.00;;;;;;;-0.48;100.00;99916.44;20899708;28;20582;-65
2021/12/11 06:16:28;;;;;;;77.03;24.90;;;;;;;-0.52;100.00;99931.41;20910420;28;20227;-69
2021/12/11 06:26:31;;;;;;;83.10;26.10;;;;;;;-0.55;100.00;99944.56;20913895;28;20230;-69
2021/12/11 06:36:35;;;;;;;105.77;25.80;;;;;;;-0.54;100.00;99935.81;20914370;28;20713;-70
2021/12/11 06:46:41;;;;;;;107.93;25.93;;;;;;;-0.57;100.00;99964.72;20964124;28;20621;-71
2021/12/11 07:06:46;;;;;;;127.80;27.20;;;;;;;-0.38;100.00;99981.72;20966963;27;20966;-71
2021/12/11 07:16:50;;;;;;;133.10;28.07;;;;;;;-0.22;100.00;99997.03;20918040;28;20280;-69
2021/12/11 07:26:54;;;;;;;120.23;28.53;;;;;;;-0.08;100.00;100005.41;20923454;28;20215;-66
2021/12/11 07:37:04;;;;;;;106.07;26.67;;;;;;;0.10;100.00;100020.69;20917533;28;20235;-72
2021/12/11 07:47:07;;;;;;;83.37;26.93;;;;;;;0.28;100.00;100035.06;20916145;28;20598;-70
2021/12/11 07:57:11;;;;;;;47.93;21.20;;;;;;;0.49;100.00;100039.69;20917647;28;20359;-73
2021/12/11 08:07:15;;;;;;;59.63;23.83;;;;;;;0.70;100.00;100049.63;20884684;28;20239;-74
2021/12/11 08:17:21;;;;;;;42.80;20.20;;;;;;;1.01;100.00;100060.09;20863647;28;20236;-72
2021/12/11 08:27:26;;;;;;;47.33;23.43;;;;;;;1.32;100.00;100098.63;20850692;28;20224;-72
2021/12/11 08:37:30;;;;;;;50.47;25.33;;;;;;;1.20;100.00;100117.38;20856956;28;20595;-71
2021/12/11 08:47:42;;;;;;;51.77;26.93;;;;;;;1.06;100.00;100129.16;20843042;28;20236;-73
2021/12/11 08:57:46;;;;;;;43.17;23.17;;;;;;;1.30;100.00;100124.06;20861428;28;20303;-71
2021/12/11 09:07:54;;;;;;;40.30;21.60;;;;;;;1.79;100.00;100139.22;20857483;28;20274;-71
2021/12/11 09:18:25;;;;;;;49.30;23.83;;;;;;;1.97;100.00;100164.06;20857882;28;20224;-71
2021/12/11 09:28:35;;;;;;;44.47;22.07;;;;;;;2.11;100.00;100168.00;20845455;28;20229;-69
2021/12/11 09:38:41;;;;;;;48.40;23.80;;;;;;;2.16;100.00;100187.16;20857965;28;20238;-69
2021/12/11 09:48:47;;;;;;;43.57;21.77;;;;;;;2.31;100.00;100209.47;20855863;28;20326;-71
2021/12/11 09:58:51;;;;;;;50.87;21.87;;;;;;;2.57;100.00;100213.00;20854310;28;20231;-69
2021/12/11 10:09:09;;;;;;;42.93;20.37;;;;;;;2.71;100.00;100216.06;20853299;28;20237;-70
2021/12/11 10:19:15;;;;;;;35.53;19.47;;;;;;;2.92;100.00;100230.25;20854390;28;20241;-70
2021/12/11 10:29:19;;;;;;;41.93;21.87;;;;;;;3.10;100.00;100246.31;20852403;28;20256;-71
2021/12/11 10:39:23;;;;;;;41.27;20.43;;;;;;;3.24;100.00;100254.59;20852030;28;20358;-70
2021/12/11 10:49:27;;;;;;;47.57;22.93;;;;;;;3.37;100.00;100267.34;20851577;28;20226;-69
2021/12/11 10:59:33;;;;;;;40.80;20.93;;;;;;;3.48;100.00;100267.84;20851065;28;20377;-70
2021/12/11 11:09:37;;;;;;;46.80;23.03;;;;;;;3.43;100.00;100244.25;20850419;28;20235;-70
2021/12/11 11:19:41;;;;;;;44.67;22.27;;;;;;;3.63;100.00;100264.59;20843357;28;20258;-64
2021/12/11 11:29:47;;;;;;;70.53;46.55;;;;;;;4.16;100.00;100275.81;20846181;28;20945;-68
2021/12/11 11:39:51;;;;;;;41.60;24.67;;;;;;;3.66;100.00;100284.75;20893119;28;20258;-71
2021/12/11 11:49:59;;;;;;;34.97;21.00;;;;;;;3.58;100.00;100316.69;20906219;28;20254;-69
2021/12/11 12:00:27;;;;;;;43.43;23.50;;;;;;;3.69;100.00;100335.66;20913764;28;20234;-69
2021/12/11 12:10:30;;;;;;;35.17;20.73;;;;;;;3.53;100.00;100334.47;20914423;28;20220;-69
2021/12/11 12:20:34;;;;;;;30.50;17.27;;;;;;;3.72;100.00;100350.53;20909814;28;20298;-67
2021/12/11 12:30:52;;;;;;;32.60;18.43;;;;;;;3.63;100.00;100356.97;20864552;28;20242;-68
2021/12/11 12:41:12;;;;;;;31.87;17.37;;;;;;;3.59;100.00;100371.19;20862235;28;20226;-70
2021/12/11 12:51:16;;;;;;;43.27;22.00;;;;;;;3.42;100.00;100394.66;20879530;28;20307;-65
2021/12/11 13:01:26;;;;;;;55.03;28.53;;;;;;;3.15;100.00;100396.41;20860788;28;20744;-65
2021/12/11 13:11:35;;;;;;;63.67;29.77;;;;;;;2.79;100.00;100403.72;20856879;28;20244;-68
2021/12/11 13:21:45;;;;;;;59.70;28.70;;;;;;;2.41;100.00;100425.97;20858113;28;20237;-65
2021/12/11 13:31:50;;;;;;;62.93;29.57;;;;;;;2.04;100.00;100428.78;20854235;28;20228;-73
2021/12/11 13:41:59;;;;;;;65.60;29.07;;;;;;;1.88;100.00;100438.00;20852077;28;20599;-69
2021/12/11 13:52:05;;;;;;;60.77;25.00;;;;;;;1.80;100.00;100441.72;20849500;28;20598;-66
2021/12/11 14:02:09;;;;;;;65.47;27.80;;;;;;;1.75;100.00;100448.84;20850216;28;20225;-72
2021/12/11 14:12:13;;;;;;;61.60;26.30;;;;;;;1.74;100.00;100447.13;20838690;28;20244;-65
2021/12/11 14:22:19;;;;;;;64.27;26.63;;;;;;;1.70;100.00;100448.09;20861876;28;20237;-72
2021/12/11 14:32:26;;;;;;;82.60;29.57;;;;;;;1.43;100.00;100461.97;20848919;28;20690;-64
2021/12/11 14:42:31;;;;;;;81.73;31.10;;;;;;;1.30;100.00;100465.78;20849858;28;20232;-62
2021/12/11 14:52:35;;;;;;;76.10;29.33;;;;;;;1.19;100.00;100466.06;20848109;28;20724;-69
2021/12/11 15:02:40;;;;;;;67.47;24.80;;;;;;;1.01;100.00;100472.59;20848045;28;20359;-69
2021/12/11 15:12:44;;;;;;;69.43;25.67;;;;;;;0.96;100.00;100477.09;20848165;28;20234;-66
2021/12/11 15:22:48;;;;;;;85.80;28.37;;;;;;;0.92;100.00;100491.19;20854574;28;20377;-65
2021/12/11 15:32:55;;;;;;;96.57;29.53;;;;;;;0.86;100.00;100517.59;20858491;28;20235;-65
2021/12/11 15:43:00;;;;;;;96.83;25.27;;;;;;;0.78;100.00;100551.03;20860597;28;20239;-62
2021/12/11 16:03:00;;;;;;;54.10;18.87;;;;;;;1.02;100.00;100613.59;21086465;27;20314;-62
2021/12/11 16:13:06;;;;;;;80.13;22.53;;;;;;;1.04;100.00;100611.78;21105442;27;20225;-63
2021/12/11 16:23:10;;;;;;;102.67;24.03;;;;;;;0.93;100.00;100603.28;21093580;27;20294;-61
2021/12/11 16:33:14;;;;;;;111.27;24.60;;;;;;;0.93;100.00;100621.66;21101345;27;20233;-61
2021/12/11 16:53:19;;;;;;;102.83;23.50;;;;;;;0.82;100.00;100657.78;20832916;27;20657;-68
2021/12/11 17:03:23;;;;;;;84.43;24.13;;;;;;;0.71;100.00;100676.38;20819408;28;20224;-68
2021/12/11 17:13:30;;;;;;;141.90;25.00;;;;;;;0.54;100.00;100667.06;20804787;28;20286;-65
2021/12/11 17:23:33;;;;;;;138.10;31.23;;;;;;;0.32;100.00;100691.06;20808533;28;20229;-66
2021/12/11 17:33:38;;;;;;;105.43;27.80;;;;;;;-0.07;100.00;100702.16;20822324;28;20224;-69
2021/12/11 17:43:42;;;;;;;49.17;21.37;;;;;;;-0.20;100.00;100701.47;20806780;28;20312;-67
2021/12/11 17:53:47;;;;;;;82.53;24.20;;;;;;;-0.19;100.00;100711.09;20806368;28;20316;-66
2021/12/11 18:03:58;;;;;;;90.87;24.43;;;;;;;-0.23;100.00;100717.25;20699022;28;20682;-66
2021/12/11 18:14:15;;;;;;;70.60;24.63;;;;;;;-0.49;100.00;100738.59;20739732;28;20252;-67
2021/12/11 18:24:21;;;;;;;110.77;27.73;;;;;;;-0.55;100.00;100749.16;20744617;28;20236;-67
2021/12/11 19:04:20;;;;;;;82.17;22.60;;;;;;;-1.13;100.00;100785.59;21239387;27;20576;-60
2021/12/11 19:14:27;;;;;;;68.73;20.33;;;;;;;-1.06;100.00;100802.09;21226376;27;20293;-61
2021/12/11 19:34:33;;;;;;;74.60;23.60;;;;;;;-1.23;100.00;100837.19;21066540;27;20609;-60
2021/12/11 19:44:40;;;;;;;76.40;23.90;;;;;;;-1.28;100.00;100854.66;21055627;27;20226;-66
2021/12/11 19:54:45;;;;;;;65.23;21.77;;;;;;;-1.17;100.00;100858.06;21056630;27;20229;-67
2021/12/11 20:04:54;;;;;;;55.43;22.13;;;;;;;-1.15;100.00;100872.00;21054679;27;20241;-60
2021/12/11 20:25:02;;;;;;;73.60;24.47;;;;;;;-1.07;100.00;100871.94;20904964;27;21044;-69
2021/12/11 20:35:06;;;;;;;72.00;25.43;;;;;;;-1.09;100.00;100892.91;20861226;28;20764;-67
2021/12/11 20:55:26;;;;;;;64.83;26.10;;;;;;;-1.36;100.00;100914.06;21022584;27;2469729;-70
2021/12/11 21:05:44;;;;;;;54.93;25.33;;;;;;;-1.18;100.00;100929.63;21143298;27;20618;-65
2021/12/11 21:15:57;;;;;;;54.57;25.07;;;;;;;-1.10;100.00;100946.19;21186020;27;20217;-66
2021/12/11 21:26:06;;;;;;;49.30;25.10;;;;;;;-1.24;100.00;100955.88;21140103;28;20576;-61
2021/12/11 21:36:19;;;;;;;49.30;24.87;;;;;;;-1.39;100.00;100976.91;21131627;27;20221;-69
2021/12/11 21:46:35;;;;;;;64.47;28.80;;;;;;;-1.48;100.00;100969.09;21134262;28;20222;-67
2021/12/11 21:56:40;;;;;;;47.90;24.10;;;;;;;-1.54;100.00;100982.19;21138936;27;20241;-64
2021/12/11 22:06:51;;;;;;;66.80;25.73;;;;;;;-1.60;100.00;100997.94;21096030;27;20730;-68
2021/12/11 22:17:00;;;;;;;67.03;27.67;;;;;;;-1.73;100.00;100988.38;21121716;28;20355;-66
2021/12/11 22:27:15;;;;;;;85.87;31.00;;;;;;;-1.92;100.00;100991.03;21133130;27;20244;-70
2021/12/11 23:27:14;;;;;;;55.07;22.67;;;;;;;-2.07;100.00;101061.72;21057300;27;20636;-63
2021/12/11 23:37:26;;;;;;;123.07;32.10;;;;;;;-2.39;100.00;101068.66;20973865;28;20227;-64
2021/12/11 23:47:35;;;;;;;76.53;27.33;;;;;;;-2.53;100.00;101086.94;20971658;28;20740;-59
2021/12/11 23:57:40;;;;;;;104.50;31.67;;;;;;;-2.47;100.00;101093.94;20970781;28;20239;-65
